EW9559 Weather Reports


Display with metric or nautical units.
time (UTC)temp
F
wind
direction
speed
MPH
gust
MPH
rain 1hr
in
rain 24hr
in
rain mn
in
humidity
%
barometer
mb
20200409053027 51 292 1.0 0.0 0.00 0.00 0.00 50 1.0
20200409051527 51 289 1.0 0.0 0.00 0.00 0.00 49 1.0
20200409050025 52 291 2.0 0.0 0.00 0.00 0.00 48 1.0
20200409044526 52 292 2.0 0.0 0.00 0.00 0.00 47 1.0
20200409043029 53 292 1.0 0.0 0.00 0.00 0.00 46 1.0
20200409041528 54 290 2.0 0.0 0.00 0.00 0.00 45 1.0
20200409040029 55 291 3.0 0.0 0.00 0.00 0.00 43 1.0
20200409034533 56 292 2.0 0.0 0.00 0.00 0.00 41 1.0
20200409033026 56 289 1.0 0.0 0.00 0.00 0.00 40 1.0
20200409031526 57 287 1.0 0.0 0.00 0.00 0.00 40 1.0
20200409030026 59 248 1.0 0.0 0.00 0.00 0.00 36 1.0
20200409024524 62 210 0.0 0.0 0.00 0.00 0.00 31 1.0
20200409023030 64 144 2.0 0.0 0.00 0.00 0.00 28 1.0
20200409021524 65 143 3.0 0.0 0.00 0.00 0.00 27 1.0
20200409020028 66 124 5.0 0.0 0.00 0.00 0.00 27 1.0
20200409014530 67 117 4.0 0.0 0.00 0.00 0.00 26 1.0
20200409013024 67 118 6.0 0.0 0.00 0.00 0.00 25 1.0
20200409011530 67 121 6.0 0.0 0.00 0.00 0.00 24 1.0
20200409010025 68 122 6.0 0.0 0.00 0.00 0.00 24 1.0
20200409004526 68 115 5.0 0.0 0.00 0.00 0.00 24 1.0
20200409003029 69 131 6.0 0.0 0.00 0.00 0.00 23 1.0
20200409001526 69 146 4.0 0.0 0.00 0.00 0.00 22 1.0
20200409000035 70 159 6.0 0.0 0.00 0.00 0.00 22 1.0
20200408234524 68 150 3.0 0.0 0.00 0.00 0.00 22 1.0
20200408233030 68 121 5.0 0.0 0.00 0.00 0.00 23 1.0
20200408231531 68 137 6.0 0.0 0.00 0.00 0.00 24 1.0
20200408230028 68 132 7.0 0.0 0.00 0.00 0.00 25 1.0
20200408224527 68 138 5.0 0.0 0.00 0.00 0.00 24 1.0
20200408223029 67 147 7.0 0.0 0.00 0.00 0.00 25 1.0
20200408221526 67 137 6.0 0.0 0.00 0.00 0.00 27 1.0
20200408220026 66 116 6.0 0.0 0.00 0.00 0.00 27 1.0
20200408214525 66 110 7.0 0.0 0.00 0.00 0.00 27 1.0
20200408213025 65 111 8.0 0.0 0.00 0.00 0.00 28 1.0
20200408211531 65 116 6.0 0.0 0.00 0.00 0.00 28 1.0
20200408210026 64 121 8.0 0.0 0.00 0.00 0.00 29 1.0
20200408204524 64 109 8.0 0.0 0.00 0.00 0.00 31 1.0
20200408203028 64 118 6.0 0.0 0.00 0.00 0.00 32 1.0
20200408201528 64 136 5.0 0.0 0.00 0.00 0.00 36 1.0
20200408200029 62 301 2.0 0.0 0.00 0.00 0.00 40 1.0
20200408194527 61 35 4.0 0.0 0.00 0.00 0.00 42 1.0
20200408193030 60 43 3.0 0.0 0.00 0.00 0.00 43 1.0
20200408191531 59 59 4.0 0.0 0.00 0.00 0.00 46 1.0
20200408190027 58 56 4.0 0.0 0.00 0.00 0.00 47 1.0
20200408184527 58 61 4.0 0.0 0.00 0.00 0.00 49 1.0
20200408183025 56 58 4.0 0.0 0.00 0.00 0.00 52 1.0
20200408181524 55 38 3.0 0.0 0.00 0.00 0.00 53 1.0
20200408180028 55 87 3.0 0.0 0.00 0.00 0.00 52 1.0
20200408174524 55 133 2.0 0.0 0.00 0.00 0.00 51 1.0
20200408173025 54 112 0.0 0.0 0.00 0.00 0.00 54 1.0
20200408171527 51 93 1.0 0.0 0.00 0.00 0.00 57 1.0
20200408170023 50 39 2.0 0.0 0.00 0.00 0.00 59 1.0
20200408164528 49 94 2.0 0.0 0.00 0.00 0.00 59 1.0
20200408163024 50 120 2.0 0.0 0.00 0.00 0.00 58 1.0
20200408161532 48 136 2.0 0.0 0.00 0.00 0.00 60 1.0
20200408160030 48 149 2.0 0.0 0.00 0.00 0.00 59 1.0
20200408154528 47 203 1.0 0.0 0.00 0.00 0.00 60 1.0
20200408153027 46 198 1.0 0.0 0.00 0.00 0.00 63 1.0
20200408151529 44 197 1.0 0.0 0.00 0.00 0.00 67 1.0
20200408150028 43 207 0.0 0.0 0.00 0.00 0.00 70 1.0
20200408144528 41 226 1.0 0.0 0.00 0.00 0.00 75 1.0
20200408143047 39 241 0.0 0.0 0.00 0.00 0.00 79 1.0
20200408141529 37 287 0.0 0.0 0.00 0.00 0.00 81 1.0
20200408140026 37 283 2.0 0.0 0.00 0.00 0.00 78 1.0
20200408134526 38 247 5.0 0.0 0.00 0.00 0.00 78 1.0
20200408133026 37 245 6.0 0.0 0.00 0.00 0.00 80 1.0
20200408131527 37 247 5.0 0.0 0.00 0.00 0.00 83 1.0
20200408130025 37 237 5.0 0.0 0.00 0.00 0.00 84 1.0
20200408124529 37 247 4.0 0.0 0.00 0.00 0.00 82 1.0
20200408123027 37 248 2.0 0.0 0.00 0.00 0.00 80 1.0
20200408121530 38 189 1.0 0.0 0.00 0.00 0.00 79 1.0
20200408120027 38 82 1.0 0.0 0.00 0.00 0.00 76 1.0
20200408114525 39 312 1.0 0.0 0.00 0.00 0.00 74 1.0
20200408113026 40 292 1.0 0.0 0.00 0.00 0.00 73 1.0
20200408111526 40 291 3.0 0.0 0.00 0.00 0.00 73 1.0
20200408104526 40 256 2.0 0.0 0.00 0.00 0.00 72 1.0
20200408103025 41 287 1.0 0.0 0.00 0.00 0.00 71 1.0
20200408101526 42 293 1.0 0.0 0.00 0.00 0.00 68 1.0
20200408100030 44 256 3.0 0.0 0.00 0.00 0.00 68 1.0
20200408094531 44 281 3.0 0.0 0.00 0.00 0.00 69 1.0
20200408093026 44 265 2.0 0.0 0.00 0.00 0.00 70 1.0
20200408090024 45 261 3.0 0.0 0.00 0.00 0.00 71 1.0
20200408084527 45 258 2.0 0.0 0.00 0.00 0.00 71 1.0
20200408083027 45 290 4.0 0.0 0.00 0.00 0.00 70 1.0
20200408080027 46 298 4.0 0.0 0.00 0.00 0.00 68 1.0
20200408074533 46 308 4.0 0.0 0.00 0.00 0.00 66 1.0
20200408073024 47 319 4.0 0.0 0.00 0.00 0.00 61 1.0
20200408071525 47 259 1.0 0.0 0.00 0.00 0.00 59 1.0
20200408070028 47 125 0.0 0.0 0.00 0.00 0.00 58 1.0
20200408064528 48 131 1.0 0.0 0.00 0.00 0.00 59 1.0
20200408063026 48 148 0.0 0.0 0.00 0.00 0.00 59 1.0
20200408061526 48 284 1.0 0.0 0.00 0.00 0.00 62 1.0
20200408060027 48 305 3.0 0.0 0.00 0.00 0.00 60 1.0
20200408054527 49 292 3.0 0.0 0.00 0.00 0.00 58 1.0